Tiempo atmosférico en la estación meteorológica de Benabarre, Huesca (765 m.)



Fecha
DESCASC
Temp. máxima en grados centígrados (hora)
DESCASC
Temp. mínima en grados centígrados (hora)
DESCASC
Temp. media en grados centígrados
DESCASC
Racha de viento máxima en m/sg (hora)
DESCASC
Velocidad máxima media en intervalos de 10 minutos(hora)
DESCASC
Precipitaciones diarias en mm
DESCASC
Precipitaciones de 00:00 a 06:00 en mm
DESCASC
Precipitaciones de 06:00 a 12:00 en mm
DESCASC
Precipitaciones de 12:00 a 18:00 en mm
DESCASC
Precipitaciones de 18:00 a 24:00 en mm
DESCASC
17-09-2020 26.8 (12:20) 17.1 (05:10) 21.9 9.72 (10:50) 7.22 (10:50) 0 0 0 0 0
16-09-2020 29.9 (16:20) 15 (07:50) 22.4 8.33 (17:40) 4.17 (17:10) 0 0 0 0 0
15-09-2020 28.8 (17:30) 15.3 (02:20) 22 7.5 (04:10) 5.83 (04:10) 0 0 0 0 0
14-09-2020 29.5 (15:30) 14 (00:00) 21.8 7.22 (15:50) 3.89 (10:20) 0 0 0 0 0
13-09-2020 29.5 (16:30) 14.1 (00:00) 21.8 6.11 (10:40) 4.17 (10:40) 0 0 0 0 0
12-09-2020 28.5 (16:40) 14 (00:00) 21.3 7.5 (15:40) 3.89 (15:20) 0 0 0 0 0
11-09-2020 27.4 (15:50) 12.9 (00:00) 20.1 9.17 (17:10) 4.72 (17:30) 0 0 0 0 0
10-09-2020 26.3 (17:10) 13.1 (00:00) 19.7 10.56 (17:20) 6.11 (17:20) 0 0 0 0 0
09-09-2020 23.2 (15:40) 13.2 (00:00) 18.2 7.5 (16:00) 4.44 (16:00) 0.2 0 0 0 0.2
08-09-2020 25.1 (14:20) 9.1 (00:00) 17.1 8.61 (17:50) 5 (17:50) 0.2 0 0 0 0.2
07-09-2020 23.3 (17:30) 10 (08:00) 16.6 10.83 (16:50) 6.67 (20:50) 0 0 0 0 0
06-09-2020 25.6 (16:30) 14.2 (00:00) 19.9 9.72 (12:00) 5 (18:50) 0 0 0 0 0
05-09-2020 28.9 (16:20) 13.4 (00:00) 21.1 7.22 (17:00) 4.17 (14:00) 0 0 0 0 0
04-09-2020 29.6 (16:20) 12.6 (00:00) 21.1 6.67 (18:20) 3.33 (10:20) 0 0 0 0 0
03-09-2020 27 (17:30) 11.1 (00:00) 19.1 7.22 (15:40) 3.61 (15:40) 0 0 0 0 0
02-09-2020 24.5 (17:50) 10.4 (00:00) 17.4 8.06 (14:10) 4.44 (14:10) 0 0 0 0 0
01-09-2020 23.2 (18:10) 10.5 (00:00) 16.9 5.83 (15:00) 3.61 (15:00) 0 0 0 0 0
31-08-2020 22.6 (18:30) 7.8 (00:00) 15.2 8.33 (15:10) 4.17 (19:10) 0 0 0 0 0
30-08-2020 21.5 (17:40) 7.8 (00:00) 14.7 8.61 (19:50) 4.44 (18:00) 0 0 0 0 0
29-08-2020 22.7 (17:00) 11.3 (00:00) 17 14.72 (18:30) 9.44 (18:30) 0.6 0.6 0 0 0
28-08-2020 25.5 (17:40) 18.2 (00:00) 21.9 8.61 (21:00) 5 (21:00) 0.8 0 0 0.2 0.6
27-08-2020 31.9 (16:40) 18.1 (00:00) 25 8.33 (18:30) 4.72 (17:20) 0 0 0 0 0
26-08-2020 31.9 (17:40) 17.9 (00:00) 24.9 6.67 (14:50) 4.17 (18:30) 0 0 0 0 0
25-08-2020 31.8 (17:10) 13.7 (00:00) 22.7 9.72 (16:50) 4.72 (16:50) 0 0 0 0 0
24-08-2020 27.3 (16:40) 12.7 (00:00) 20 8.61 (15:10) 4.44 (15:50) 0 0 0 0 0
23-08-2020 27.8 (17:50) 12.8 (00:00) 20.3 8.33 (15:40) 4.72 (15:00) 0 0 0 0 0
22-08-2020 29.8 (16:30) 17.4 (00:00) 23.6 10 (14:40) 5.28 (15:10) 0 0 0 0 0
21-08-2020 33.3 (17:00) 20.1 (00:00) 26.7 7.78 (16:30) 4.72 (02:10) 0 0 0 0 0
20-08-2020 31.9 (14:30) 18.1 (00:00) 25 11.39 (18:00) 7.5 (18:10) 0 0 0 0 0

Gráficas

Temp. máximas Temp. mínimas Temp. medias Precipitaciones Rachas de viento máximas Velocidades máximas media en intervalos de 10 minutos

Datos horarios

Fecha y hora oficial Temperatura (ºC) Velocidad del viento (km/h) Dirección del viento Racha (km/h) Dirección de racha Precipitación (mm) Presión (hPa) Tendencia (hPa) Humedad (%)
2020-09-18 23:00:00 17.1 10 Sudeste 29 Este 0.8 -- -- 93
2020-09-18 22:00:00 17.8 14 Sudeste 26 Sudeste 0 -- -- 85
2020-09-18 21:00:00 18.5 17 Sudeste 25 Sudeste 0 -- -- 82
2020-09-18 20:00:00 19.1 17 Sudeste 32 Sudeste 0 -- -- 80
2020-09-18 19:00:00 19.3 19 Sudeste 40 Este 0 -- -- 77
2020-09-18 18:00:00 20.5 28 Sudeste 42 Sudeste 0 -- -- 71
2020-09-18 17:00:00 21.2 21 Este 31 Este 0 -- -- 72
2020-09-18 16:00:00 20.7 18 Este 35 Este 0 -- -- 76
2020-09-18 15:00:00 19.4 25 Este 37 Este 0.2 -- -- 81
2020-09-18 14:00:00 17.9 22 Este 32 Este 0 -- -- 88
2020-09-18 13:00:00 17.7 7 Sur 24 Este 0.6 -- -- 86
2020-09-18 12:00:00 18.9 18 Sudeste 32 Este 0.2 -- -- 74
2020-09-18 11:00:00 20.3 18 Sudeste 29 Este 0 -- -- 59
2020-09-18 10:00:00 19.4 19 Este 27 Este 0 -- -- 59
2020-09-18 09:00:00 18.5 19 Este 27 Este 0 -- -- 63
2020-09-18 08:00:00 18 7 Sudeste 15 Este 0.2 -- -- 65
2020-09-18 07:00:00 18.5 7 Este 17 Este 0 -- -- 56
2020-09-18 06:00:00 18.1 9 Este 12 Este 0 -- -- 58
2020-09-18 05:00:00 17.8 8 Sudeste 17 Este 0 -- -- 59
2020-09-18 04:00:00 17.4 10 Este 12 Este 0 -- -- 59
2020-09-18 03:00:00 18 5 Este 13 Sudeste 0 -- -- 60
2020-09-18 02:00:00 18.8 9 Este 12 Este 0 -- -- 60
2020-09-18 01:00:00 19.2 6 Este 12 Sudeste 0 -- -- 60
2020-09-18 00:00:00 20.6 9 Este 10 Este 0 -- -- 57
2020-09-17 23:00:00 21.8 8 Sudeste 19 Sudeste 0 -- -- 53
2020-09-17 22:00:00 22.4 14 Sudeste 24 Sudeste 0 -- -- 50
2020-09-17 21:00:00 22.5 10 Sudeste 20 Sudeste 0 -- -- 46
2020-09-17 20:00:00 24 10 Sudeste 19 Sur 0 -- -- 41
2020-09-17 19:00:00 25.6 10 Sudeste 24 Sudeste 0 -- -- 36
2020-09-17 18:00:00 25.7 10 Sur 17 Sudeste 0 -- -- 39
2020-09-17 17:00:00 25.6 8 Sudeste 18 Sudeste 0 -- -- 39
2020-09-17 16:00:00 26.5 12 Sudeste 23 Sudeste 0 -- -- 37
2020-09-17 15:00:00 25.9 12 Sudeste 27 Sudeste 0 -- -- 40
2020-09-17 14:00:00 26 14 Sudeste 28 Sur 0 -- -- 43
2020-09-17 13:00:00 26.2 12 Sur 23 Sudeste 0 -- -- 41
2020-09-17 12:00:00 26.1 16 Sur 32 Este 0 -- -- 42
2020-09-17 11:00:00 23.2 20 Este 35 Este 0 -- -- 50
2020-09-17 10:00:00 22.4 17 Este 34 Este 0 -- -- 53
2020-09-17 09:00:00 20.8 19 Este 28 Nordeste 0 -- -- 57
2020-09-17 08:00:00 19.4 12 Nordeste 21 Nordeste 0 -- -- 62
2020-09-17 07:00:00 18.9 13 Nordeste 22 Nordeste 0 -- -- 65
2020-09-17 06:00:00 17.7 9 Nordeste 14 Nordeste 0 -- -- 71
2020-09-17 05:00:00 17.4 9 Nordeste 14 Norte 0 -- -- 73
2020-09-17 04:00:00 19.8 9 Nordeste 21 Nordeste 0 -- -- 67
2020-09-17 03:00:00 20.1 8 Nordeste 16 Nordeste 0 -- -- 70
2020-09-17 02:00:00 20.5 12 Nordeste 20 Nordeste 0 -- -- 68
2020-09-17 01:00:00 19.7 14 Nordeste 18 Nordeste 0 -- -- 71
2020-09-17 00:00:00 20.5 14 Nordeste 18 Nordeste 0 -- -- 67
2020-09-16 23:00:00 20.2 6 Este 10 Este 0 -- -- 70
2020-09-16 22:00:00 21 4 Este 12 Sudeste 0 -- -- 57
2020-09-16 21:00:00 21.4 6 Norte 10 Norte 0 -- -- 51
2020-09-16 20:00:00 26.3 4 Sur 17 Oeste 0 -- -- 40
2020-09-16 19:00:00 27.9 10 Oeste 23 Sudoeste 0 -- -- 37
2020-09-16 18:00:00 29 13 Sudoeste 30 Sudoeste 0 -- -- 35
2020-09-16 17:00:00 29.7 11 Sudoeste 23 Sudoeste 0 -- -- 32
2020-09-16 16:00:00 29.1 11 Oeste 19 Sudoeste 0 -- -- 37
2020-09-16 15:00:00 28.9 8 Oeste 25 Oeste 0 -- -- 35
2020-09-16 14:00:00 28 6 Oeste 18 Oeste 0 -- -- 33
2020-09-16 13:00:00 27.6 9 Oeste 18 Oeste 0 -- -- 38
2020-09-16 12:00:00 26.4 6 Sur 13 Sudeste 0 -- -- 41
2020-09-16 11:00:00 24.4 8 Sur 20 Sudeste 0 -- -- 48
2020-09-16 10:00:00 22.6 11 Este 18 Sudeste 0 -- -- 52
2020-09-16 09:00:00 18 5 Noroeste 11 Norte 0 -- -- 67
2020-09-16 08:00:00 15 10 Norte 13 Norte 0 -- -- 76
2020-09-16 07:00:00 15.4 9 Norte 13 Norte 0 -- -- 75
2020-09-16 06:00:00 15.4 9 Norte 14 Norte 0 -- -- 75
2020-09-16 05:00:00 15.6 8 Noroeste 13 Norte 0 -- -- 74
2020-09-16 04:00:00 15.8 7 Norte 14 Norte 0 -- -- 73
2020-09-16 03:00:00 15.9 10 Norte 13 Norte 0 -- -- 71
2020-09-16 02:00:00 17.3 9 Norte 15 Norte 0 -- -- 67
2020-09-16 01:00:00 17.5 9 Norte 15 Norte 0 -- -- 67
2020-09-16 00:00:00 17.4 9 Norte 11 Norte 0 -- -- 66
2020-09-15 23:00:00 17.9 9 Norte 12 Norte 0 -- -- 62
2020-09-15 22:00:00 18.7 7 Norte 12 Norte 0 -- -- 57
2020-09-15 21:00:00 22.1 2 Sudoeste 10 Sudoeste 0 -- -- 49
2020-09-15 20:00:00 25.2 2 Sudoeste 19 Sudoeste 0 -- -- 41
2020-09-15 19:00:00 27.2 10 Sudoeste 24 Sudoeste 0 -- -- 37
2020-09-15 18:00:00 28 11 Sudoeste 24 Oeste 0 -- -- 36
2020-09-15 17:00:00 28.5 8 Oeste 24 Oeste 0 -- -- 36
2020-09-15 16:00:00 28.2 10 Oeste 23 Oeste 0 -- -- 37
2020-09-15 15:00:00 27.2 11 Noroeste 24 Oeste 0 -- -- 37
2020-09-15 14:00:00 26.9 7 Oeste 21 Oeste 0 -- -- 36
2020-09-15 13:00:00 24.8 4 Sudoeste 10 Oeste 0 -- -- 41
2020-09-15 12:00:00 21.4 3 Norte 9 Sudeste 0 -- -- 50
2020-09-15 11:00:00 19.9 7 Sudeste 13 Sur 0 -- -- 56
2020-09-15 10:00:00 18.9 3 Oeste 9 Norte 0 -- -- 55
2020-09-15 09:00:00 17.7 4 Sudoeste 9 Sudoeste 0 -- -- 59
2020-09-15 08:00:00 17.8 4 Norte 14 Norte 0 -- -- 56
2020-09-15 07:00:00 16.3 9 Norte 14 Noroeste 0 -- -- 64
2020-09-15 06:00:00 16 8 Nordeste 18 Nordeste 0 -- -- 65
2020-09-15 05:00:00 17.2 13 Nordeste 27 Este 0 -- -- 59
2020-09-15 04:00:00 18.4 13 Este 19 Nordeste 0 -- -- 56
2020-09-15 03:00:00 16.1 4 Sudeste 12 Nordeste 0 -- -- 64
2020-09-15 02:00:00 15.5 6 Norte 10 Norte 0 -- -- 65
2020-09-15 01:00:00 18.2 3 Sur 17 Este 0 -- -- 59
2020-09-15 00:00:00 18 7 Nordeste 12 Nordeste 0 -- -- 60
2020-09-14 23:00:00 19.3 9 Este 13 Nordeste 0 -- -- 56
2020-09-14 22:00:00 21 2 Este 16 Sudeste 0 -- -- 53
2020-09-14 21:00:00 22.6 9 Sudeste 19 Sudeste 0 -- -- 49
2020-09-14 20:00:00 24.8 10 Sur 26 Sudeste 0 -- -- 44
2020-09-14 19:00:00 27 11 Sur 21 Sur 0 -- -- 36
2020-09-14 18:00:00 27.9 14 Sur 26 Sur 0 -- -- 29
2020-09-14 17:00:00 28.9 12 Sudeste 26 Sur 0 -- -- 29
2020-09-14 16:00:00 28.4 13 Sudeste 26 Sudeste 0 -- -- 31
2020-09-14 15:00:00 28.6 11 Sur 22 Sur 0 -- -- 32
2020-09-14 14:00:00 28.6 11 Sur 24 Sudeste 0 -- -- 32
2020-09-14 13:00:00 27.7 12 Sudeste 25 Sudeste 0 -- -- 34
2020-09-14 12:00:00 26.4 9 Sur 20 Sur 0 -- -- 37
2020-09-14 11:00:00 25.1 12 Este 20 Este 0 -- -- 42
2020-09-14 10:00:00 22.8 11 Sudeste 17 Este 0 -- -- 48
2020-09-14 09:00:00 19.6 6 Este 13 Este 0 -- -- 55
2020-09-14 08:00:00 15.6 0 Calma 14 Nordeste 0 -- -- 68
2020-09-14 07:00:00 14.3 5 Norte 8 Norte 0 -- -- 73
2020-09-14 06:00:00 15.8 0 Calma 6 Noroeste 0 -- -- 67
2020-09-14 05:00:00 15.5 3 Este 11 Nordeste 0 -- -- 70
2020-09-14 04:00:00 16 6 Norte 12 Norte 0 -- -- 66
2020-09-14 03:00:00 16.3 9 Norte 13 Norte 0 -- -- 66
2020-09-14 02:00:00 16.4 7 Norte 14 Norte 0 -- -- 64
2020-09-14 01:00:00 16.5 11 Norte 13 Norte 0 -- -- 66
2020-09-14 00:00:00 17.2 8 Norte 11 Norte 0 -- -- 60
2020-09-13 23:00:00 17.9 3 Este 10 Este 0 -- -- 53
2020-09-13 22:00:00 19 4 Este 9 Sudeste 0 -- -- 45
2020-09-13 21:00:00 21.4 3 Sur 10 Sudeste 0 -- -- 41
2020-09-13 20:00:00 26.6 6 Sur 16 Sur 0 -- -- 31
2020-09-13 19:00:00 28 10 Sur 22 Sur 0 -- -- 31
2020-09-13 18:00:00 29 10 Sur 22 Oeste 0 -- -- 31
2020-09-13 17:00:00 29 10 Sudeste 21 Sudoeste 0 -- -- 33
2020-09-13 16:00:00 28.4 3 Noroeste 19 Oeste 0 -- -- 35
2020-09-13 15:00:00 28.2 9 Noroeste 17 Oeste 0 -- -- 35
2020-09-13 14:00:00 27.6 6 Noroeste 19 Sudeste 0 -- -- 36
2020-09-13 13:00:00 28.5 7 Sudeste 19 Sudeste 0 -- -- 33
2020-09-13 12:00:00 26.9 9 Sudeste 17 Este 0 -- -- 39
2020-09-13 11:00:00 25.2 10 Este 22 Este 0 -- -- 44
2020-09-13 10:00:00 23 10 Este 21 Este 0 -- -- 49
2020-09-13 09:00:00 19.5 14 Este 19 Este 0 -- -- 57
2020-09-13 08:00:00 14.5 7 Noroeste 12 Norte 0 -- -- 75
2020-09-13 07:00:00 14.1 11 Norte 14 Norte 0 -- -- 78
2020-09-13 06:00:00 14.6 8 Norte 11 Norte 0 -- -- 76
2020-09-13 05:00:00 15.6 6 Norte 14 Norte 0 -- -- 71
2020-09-13 04:00:00 15.7 10 Norte 14 Norte 0 -- -- 70
2020-09-13 03:00:00 15.5 5 Norte 10 Norte 0 -- -- 70
2020-09-13 02:00:00 15.6 8 Norte 11 Norte 0 -- -- 70
2020-09-13 01:00:00 16.1 5 Norte 9 Norte 0 -- -- 67
2020-09-13 00:00:00 18.9 5 Este 13 Este 0 -- -- 56
2020-09-12 23:00:00 17.2 4 Este 15 Sudeste 0 -- -- 60
2020-09-12 22:00:00 18.1 9 Norte 13 Norte 0 -- -- 57
2020-09-12 21:00:00 20.6 8 Norte 11 Noroeste 0 -- -- 50
2020-09-12 20:00:00 25.9 7 Oeste 17 Sudoeste 0 -- -- 39
2020-09-12 19:00:00 27.9 9 Sudoeste 20 Sudoeste 0 -- -- 31
2020-09-12 18:00:00 28.1 10 Sur 22 Sudoeste 0 -- -- 31
2020-09-12 17:00:00 28.3 11 Sudoeste 24 Oeste 0 -- -- 34
2020-09-12 16:00:00 28 12 Sur 27 Sudoeste 0 -- -- 35
2020-09-12 15:00:00 27.2 9 Sudoeste 22 Oeste 0 -- -- 41
2020-09-12 14:00:00 25.7 6 Oeste 18 Oeste 0 -- -- 43
2020-09-12 13:00:00 26.8 9 Oeste 18 Oeste 0 -- -- 40
2020-09-12 12:00:00 25.7 5 Este 14 Este 0 -- -- 44
2020-09-12 11:00:00 24 6 Sudeste 15 Sudeste 0 -- -- 49
2020-09-12 10:00:00 22.2 10 Este 15 Este 0 -- -- 55
2020-09-12 09:00:00 17.1 2 Oeste 10 Norte 0 -- -- 74
2020-09-12 08:00:00 14.2 8 Norte 10 Norte 0 -- -- 81
2020-09-12 07:00:00 14.2 4 Norte 9 Norte 0 -- -- 80
2020-09-12 06:00:00 14.2 4 Norte 9 Norte 0 -- -- 80
2020-09-12 05:00:00 14.1 8 Norte 10 Norte 0 -- -- 80
2020-09-12 04:00:00 14.8 7 Norte 11 Norte 0 -- -- 77
2020-09-12 03:00:00 15.3 6 Norte 9 Norte 0 -- -- 76
2020-09-12 02:00:00 15.9 3 Nordeste 8 Este 0 -- -- 73
2020-09-12 01:00:00 18 5 Este 10 Este 0 -- -- 68
2020-09-12 00:00:00 19 8 Este 15 Sudeste 0 -- -- 63
2020-09-11 23:00:00 18.7 4 Sudeste 9 Este 0 -- -- 55
2020-09-11 22:00:00 19.3 4 Norte 9 Norte 0 -- -- 54
2020-09-11 21:00:00 21.2 4 Norte 8 Sudoeste 0 -- -- 49
2020-09-11 20:00:00 24.9 6 Sudoeste 20 Sudoeste 0 -- -- 40
2020-09-11 19:00:00 26.4 11 Sur 23 Oeste 0 -- -- 37
2020-09-11 18:00:00 27.2 12 Oeste 33 Sudoeste 0 -- -- 36
2020-09-11 17:00:00 27.3 14 Sudoeste 25 Oeste 0 -- -- 37
2020-09-11 16:00:00 27.2 13 Oeste 24 Sudoeste 0 -- -- 37
2020-09-11 15:00:00 27.1 11 Sudoeste 24 Sudoeste 0 -- -- 36
2020-09-11 14:00:00 26.5 8 Oeste 21 Oeste 0 -- -- 30
2020-09-11 13:00:00 25.8 10 Sudoeste 20 Oeste 0 -- -- 33
2020-09-11 12:00:00 24.1 8 Oeste 14 Sudoeste 0 -- -- 37
2020-09-11 11:00:00 22.3 9 Oeste 14 Noroeste 0 -- -- 46
2020-09-11 10:00:00 19.7 9 Noroeste 13 Oeste 0 -- -- 55
2020-09-11 09:00:00 17 6 Noroeste 12 Norte 0 -- -- 65
2020-09-11 08:00:00 13.2 9 Norte 13 Norte 0 -- -- 71
2020-09-11 07:00:00 13 8 Norte 13 Norte 0 -- -- 72
2020-09-11 06:00:00 13.3 9 Norte 15 Norte 0 -- -- 72
2020-09-11 05:00:00 13.4 14 Norte 17 Norte 0 -- -- 71
2020-09-11 04:00:00 13.9 7 Norte 14 Norte 0 -- -- 69
2020-09-11 03:00:00 14.2 10 Norte 16 Norte 0 -- -- 70
2020-09-11 02:00:00 14.7 9 Norte 12 Noroeste 0 -- -- 68
2020-09-11 01:00:00 15.2 6 Norte 14 Norte 0 -- -- 70
2020-09-11 00:00:00 15.8 8 Norte 11 Norte 0 -- -- 69
2020-09-10 23:00:00 17 2 Noroeste 10 Sudeste 0 -- -- 70
2020-09-10 22:00:00 19.2 6 Sudeste 18 Este 0 -- -- 67
2020-09-10 21:00:00 21.4 7 Este 19 Este 0 -- -- 48
2020-09-10 20:00:00 24.5 10 Norte 17 Noroeste 0 -- -- 38
2020-09-10 19:00:00 25.4 14 Noroeste 24 Oeste 0 -- -- 38
2020-09-10 18:00:00 25.8 15 Noroeste 38 Oeste 0 -- -- 45
2020-09-10 17:00:00 26.1 19 Oeste 30 Oeste 0 -- -- 45
2020-09-10 16:00:00 25.4 15 Oeste 28 Oeste 0 -- -- 45
2020-09-10 15:00:00 25 5 Sudoeste 18 Oeste 0 -- -- 42
2020-09-10 14:00:00 24.7 6 Oeste 18 Oeste 0 -- -- 45
2020-09-10 13:00:00 23.6 9 Oeste 19 Oeste 0 -- -- 48
2020-09-10 12:00:00 21.7 10 Noroeste 19 Noroeste 0 -- -- 57
2020-09-10 11:00:00 19.3 8 Oeste 14 Noroeste 0 -- -- 65
2020-09-10 10:00:00 18 3 Sur 8 Este 0 -- -- 75
2020-09-10 09:00:00 15.7 4 Noroeste 9 Noroeste 0 -- -- 83
2020-09-10 08:00:00 14.4 3 Este 10 Noroeste 0 -- -- 89
2020-09-10 07:00:00 14.2 6 Noroeste 12 Noroeste 0 -- -- 91
2020-09-10 06:00:00 13.9 7 Noroeste 10 Noroeste 0 -- -- 91
2020-09-10 05:00:00 14.2 4 Nordeste 8 Noroeste 0 -- -- 89
2020-09-10 04:00:00 13.9 5 Norte 10 Noroeste 0 -- -- 91
2020-09-10 03:00:00 13.4 4 Noroeste 9 Norte 0 -- -- 90
2020-09-10 02:00:00 13.3 6 Norte 12 Norte 0 -- -- 91
2020-09-10 01:00:00 13.1 9 Norte 11 Norte 0 -- -- 92
2020-09-10 00:00:00 13.3 3 Norte 12 Este 0 -- -- 90
2020-09-09 23:00:00 14.6 5 Este 8 Sudeste 0 -- -- 90
2020-09-09 22:00:00 15.3 7 Este 13 Sudeste 0 -- -- 88
2020-09-09 21:00:00 16.1 6 Este 12 Este 0 -- -- 87
2020-09-09 20:00:00 16.8 8 Este 17 Sudeste 0.2 -- -- 86
2020-09-09 19:00:00 18 12 Sudeste 23 Sudeste 0 -- -- 79
2020-09-09 18:00:00 20.5 9 Este 19 Este 0 -- -- 66
2020-09-09 17:00:00 21.8 10 Sudeste 22 Oeste 0 -- -- 58
2020-09-09 16:00:00 22.7 16 Oeste 27 Oeste 0 -- -- 49
2020-09-09 15:00:00 21.7 8 Oeste 18 Sur 0 -- -- 51
2020-09-09 14:00:00 21.6 12 Sur 20 Sudeste 0 -- -- 56
2020-09-09 13:00:00 22.2 6 Noroeste 16 Noroeste 0 -- -- 49
2020-09-09 12:00:00 20 8 Oeste 15 Sudoeste 0 -- -- 56
2020-09-09 11:00:00 18.7 4 Sudeste 7 Sudoeste 0 -- -- 67
2020-09-09 10:00:00 17.4 4 Sudoeste 8 Sur 0 -- -- 72
2020-09-09 09:00:00 15.8 4 Nordeste 9 Este 0 -- -- 78
2020-09-09 08:00:00 14.6 7 Nordeste 17 Este 0 -- -- 83
2020-09-09 07:00:00 14.5 12 Este 20 Sudeste 0 -- -- 83
2020-09-09 06:00:00 14.9 5 Este 10 Este 0 -- -- 80
2020-09-09 05:00:00 15.1 6 Nordeste 18 Este 0 -- -- 76
2020-09-09 04:00:00 13.3 6 Nordeste 11 Norte 0 -- -- 83
2020-09-09 03:00:00 13.3 5 Norte 12 Norte 0 -- -- 82
2020-09-09 02:00:00 13.7 7 Norte 10 Norte 0 -- -- 83
2020-09-09 01:00:00 15.6 3 Sur 8 Este 0 -- -- 82
2020-09-09 00:00:00 16 3 Sudeste 13 Nordeste 0 -- -- 83
2020-09-08 23:00:00 15.9 6 Nordeste 17 Sudeste 0.2 -- -- 82
2020-09-08 22:00:00 18.1 11 Sudeste 22 Este 0 -- -- 64
2020-09-08 21:00:00 18.7 10 Sudeste 28 Sudeste 0 -- -- 61
2020-09-08 20:00:00 21.3 5 Sudeste 10 Sudeste 0 -- -- 45
2020-09-08 19:00:00 21.9 8 Sudoeste 21 Sudoeste 0 -- -- 43
2020-09-08 18:00:00 23 12 Sur 31 Sudeste 0 -- -- 39
2020-09-08 17:00:00 24.3 14 Sur 29 Sudeste 0 -- -- 36
2020-09-08 16:00:00 24.7 12 Sur 25 Sudeste 0 -- -- 34
2020-09-08 15:00:00 24.7 11 Sur 24 Sur 0 -- -- 32
2020-09-08 14:00:00 24 12 Sudeste 24 Sudeste 0 -- -- 32
2020-09-08 13:00:00 23.7 8 Sur 15 Sudeste 0 -- -- 32
2020-09-08 12:00:00 21 8 Oeste 17 Oeste 0 -- -- 33
2020-09-08 11:00:00 18.4 10 Noroeste 18 Oeste 0 -- -- 39
2020-09-08 10:00:00 15.7 9 Noroeste 14 Oeste 0 -- -- 43
2020-09-08 09:00:00 13.7 5 Noroeste 11 Noroeste 0 -- -- 49
2020-09-08 08:00:00 10 8 Norte 17 Norte 0 -- -- 57
2020-09-08 07:00:00 9.1 13 Norte 15 Norte 0 -- -- 61
2020-09-08 06:00:00 9.2 13 Norte 19 Norte 0 -- -- 59
2020-09-08 05:00:00 10.3 8 Norte 11 Norte 0 -- -- 56
2020-09-08 04:00:00 13.1 3 Sur 19 Este 0 -- -- 47
2020-09-08 03:00:00 12.4 4 Nordeste 13 Nordeste 0 -- -- 49
2020-09-08 02:00:00 13.5 8 Nordeste 17 Este 0 -- -- 45
2020-09-08 01:00:00 14.4 10 Este 23 Este 0 -- -- 42
2020-09-08 00:00:00 15.4 18 Este 30 Este 0 -- -- 40
2020-09-07 23:00:00 15.8 13 Este 29 Este 0 -- -- 39
2020-09-07 22:00:00 17 18 Este 33 Este 0 -- -- 37
2020-09-07 21:00:00 18.2 19 Este 34 Este 0 -- -- 34
2020-09-07 20:00:00 21.5 16 Este 27 Este 0 -- -- 30
2020-09-07 19:00:00 22.6 16 Sudoeste 29 Oeste 0 -- -- 35
2020-09-07 18:00:00 22.3 14 Oeste 32 Oeste 0 -- -- 36
2020-09-07 17:00:00 23 20 Oeste 39 Sudoeste 0 -- -- 37
2020-09-07 16:00:00 22.7 15 Oeste 30 Oeste 0 -- -- 38
2020-09-07 15:00:00 22.4 13 Oeste 26 Oeste 0 -- -- 37
2020-09-07 14:00:00 21.6 12 Oeste 24 Oeste 0 -- -- 40
2020-09-07 13:00:00 19.5 13 Oeste 22 Oeste 0 -- -- 47
2020-09-07 12:00:00 19.9 7 Sudeste 13 Sudeste 0 -- -- 48
2020-09-07 11:00:00 17.4 6 Sudeste 13 Sur 0 -- -- 57
2020-09-07 10:00:00 14.6 8 Sudeste 13 Este 0 -- -- 69
2020-09-07 09:00:00 13.5 6 Este 12 Sudeste 0 -- -- 75
2020-09-07 08:00:00 10 4 Norte 7 Este 0 -- -- 86
2020-09-07 07:00:00 10.9 5 Este 12 Este 0 -- -- 84
2020-09-07 06:00:00 11 9 Este 13 Este 0 -- -- 84
2020-09-07 05:00:00 11.4 5 Sudeste 12 Este 0 -- -- 81
2020-09-07 04:00:00 11.8 8 Este 14 Este 0 -- -- 78
2020-09-07 03:00:00 12.3 9 Este 13 Este 0 -- -- 76
2020-09-07 02:00:00 13.1 7 Sudeste 9 Sudeste 0 -- -- 72
2020-09-07 01:00:00 13.7 6 Este 9 Nordeste 0 -- -- 69
2020-09-07 00:00:00 15.1 4 Sudeste 11 Nordeste 0 -- -- 64
2020-09-06 23:00:00 16.8 6 Este 19 Sur 0 -- -- 57
2020-09-06 22:00:00 18.7 11 Sur 19 Sur 0 -- -- 52
2020-09-06 21:00:00 20.5 6 Sur 19 Sur 0 -- -- 49
2020-09-06 20:00:00 22.6 11 Sur 30 Sudoeste 0 -- -- 45
2020-09-06 19:00:00 23.8 17 Sudoeste 29 Sudoeste 0 -- -- 45
2020-09-06 18:00:00 25.1 15 Oeste 26 Oeste 0 -- -- 44
2020-09-06 17:00:00 25.4 16 Oeste 27 Sudoeste 0 -- -- 43
2020-09-06 16:00:00 25 13 Oeste 27 Sudoeste 0 -- -- 48
2020-09-06 15:00:00 24.2 14 Sudoeste 27 Oeste 0 -- -- 54
2020-09-06 14:00:00 23.2 13 Oeste 30 Oeste 0 -- -- 61
2020-09-06 13:00:00 22.6 14 Oeste 24 Oeste 0 -- -- 62
2020-09-06 12:00:00 22.5 11 Sudoeste 35 Sudeste 0 -- -- 66
2020-09-06 11:00:00 20.7 4 Sudoeste 11 Sur 0 -- -- 72
2020-09-06 10:00:00 19 6 Sudeste 11 Sudeste 0 -- -- 78
2020-09-06 09:00:00 17.1 4 Este 6 Este 0 -- -- 91
2020-09-06 08:00:00 14.4 0 Calma 6 Este 0 -- -- 94
2020-09-06 07:00:00 14.4 3 Norte 9 Noroeste 0 -- -- 93
2020-09-06 06:00:00 14.6 5 Norte 9 Norte 0 -- -- 92
2020-09-06 05:00:00 15.3 7 Norte 12 Norte 0 -- -- 91
2020-09-06 04:00:00 16.2 5 Norte 8 Norte 0 -- -- 90
2020-09-06 03:00:00 17.3 4 Este 11 Este 0 -- -- 86
2020-09-06 02:00:00 17.6 3 Este 11 Este 0 -- -- 84
2020-09-06 01:00:00 18.5 8 Este 13 Este 0 -- -- 82
2020-09-06 00:00:00 19.5 7 Este 10 Este 0 -- -- 75
2020-09-05 23:00:00 20.9 0 Calma 12 Sudoeste 0 -- -- 67
2020-09-05 22:00:00 20.7 0 Calma 6 Este 0 -- -- 57
2020-09-05 21:00:00 22.9 0 Calma 7 Sur 0 -- -- 51
2020-09-05 20:00:00 26.3 6 Sur 19 Sur 0 -- -- 43
2020-09-05 19:00:00 27.4 11 Sur 24 Sudoeste 0 -- -- 40
2020-09-05 18:00:00 28.5 12 Sudoeste 22 Sudoeste 0 -- -- 38
2020-09-05 17:00:00 28.7 14 Sudoeste 26 Sur 0 -- -- 37
2020-09-05 16:00:00 28.3 9 Oeste 22 Oeste 0 -- -- 38
2020-09-05 15:00:00 27.6 13 Oeste 23 Noroeste 0 -- -- 41
2020-09-05 14:00:00 26.7 15 Oeste 24 Sudoeste 0 -- -- 40
2020-09-05 13:00:00 26 11 Oeste 20 Sudoeste 0 -- -- 43
2020-09-05 12:00:00 24.7 6 Noroeste 14 Oeste 0 -- -- 45
2020-09-05 11:00:00 22.7 6 Noroeste 10 Sudoeste 0 -- -- 49
2020-09-05 10:00:00 20.8 3 Sudoeste 6 Sudoeste 0 -- -- 64
2020-09-05 09:00:00 17 0 Calma 10 Norte 0 -- -- 77
2020-09-05 08:00:00 13.6 8 Norte 10 Norte 0 -- -- 87
2020-09-05 07:00:00 14.2 7 Norte 10 Norte 0 -- -- 85
2020-09-05 06:00:00 14.1 8 Norte 10 Norte 0 -- -- 85
2020-09-05 05:00:00 14.3 8 Norte 12 Norte 0 -- -- 84
2020-09-05 04:00:00 14.7 9 Norte 12 Norte 0 -- -- 81
2020-09-05 03:00:00 15 9 Norte 11 Noroeste 0 -- -- 80
2020-09-05 02:00:00 15.9 4 Norte 8 Norte 0 -- -- 78
2020-09-05 01:00:00 17.1 6 Nordeste 11 Nordeste 0 -- -- 76
2020-09-05 00:00:00 16.7 3 Norte 6 Norte 0 -- -- 76
2020-09-04 23:00:00 17.6 8 Norte 10 Norte 0 -- -- 67
2020-09-04 22:00:00 19.1 3 Este 11 Noroeste 0 -- -- 55
2020-09-04 21:00:00 22.1 4 Norte 13 Sudoeste 0 -- -- 48
2020-09-04 20:00:00 26.1 9 Sur 17 Sur 0 -- -- 38
2020-09-04 19:00:00 27.6 10 Sur 24 Sudoeste 0 -- -- 36
2020-09-04 18:00:00 28.5 11 Sur 22 Sur 0 -- -- 36
2020-09-04 17:00:00 29.3 10 Sur 21 Sur 0 -- -- 35
2020-09-04 16:00:00 29.2 7 Sudeste 20 Sudeste 0 -- -- 35
2020-09-04 15:00:00 28.7 9 Sudeste 22 Este 0 -- -- 36
2020-09-04 14:00:00 28.1 10 Sudeste 22 Este 0 -- -- 37
2020-09-04 13:00:00 26.5 8 Sur 18 Este 0 -- -- 39
2020-09-04 12:00:00 25 9 Sur 18 Sudeste 0 -- -- 41
2020-09-04 11:00:00 24.1 7 Sudeste 17 Este 0 -- -- 47
2020-09-04 10:00:00 21.7 12 Este 19 Este 0 -- -- 50
2020-09-04 09:00:00 16.5 0 Calma 4 Norte 0 -- -- 68
2020-09-04 08:00:00 13 3 Norte 6 Norte 0 -- -- 79
2020-09-04 07:00:00 12.6 5 Norte 11 Norte 0 -- -- 81
2020-09-04 06:00:00 13.5 7 Norte 11 Norte 0 -- -- 80
2020-09-04 05:00:00 14.2 0 Calma 10 Norte 0 -- -- 86
2020-09-04 04:00:00 14 6 Norte 12 Norte 0 -- -- 84
2020-09-04 03:00:00 14.1 9 Norte 12 Noroeste 0 -- -- 79
2020-09-04 02:00:00 14.5 8 Norte 12 Norte 0 -- -- 73
2020-09-04 01:00:00 14.8 8 Norte 10 Norte 0 -- -- 66
2020-09-04 00:00:00 15.4 3 Nordeste 8 Nordeste 0 -- -- 56
2020-09-03 23:00:00 16.6 3 Noroeste 12 Norte 0 -- -- 51
2020-09-03 22:00:00 17.6 8 Norte 11 Norte 0 -- -- 53
2020-09-03 21:00:00 22.2 0 Calma 12 Sur 0 -- -- 43
2020-09-03 20:00:00 24.7 8 Sur 20 Sur 0 -- -- 38
2020-09-03 19:00:00 26.1 10 Sur 19 Sudoeste 0 -- -- 35
2020-09-03 18:00:00 27 5 Sudoeste 21 Sur 0 -- -- 34
2020-09-03 17:00:00 26.6 7 Sur 23 Sudoeste 0 -- -- 35
2020-09-03 16:00:00 26.6 12 Sur 26 Oeste 0 -- -- 38
2020-09-03 15:00:00 25.8 11 Oeste 24 Oeste 0 -- -- 42
2020-09-03 14:00:00 25.6 6 Sudoeste 22 Oeste 0 -- -- 43
2020-09-03 13:00:00 24.6 6 Sur 18 Sudeste 0 -- -- 48
2020-09-03 12:00:00 22.8 8 Sur 16 Oeste 0 -- -- 51
2020-09-03 11:00:00 21.2 5 Este 15 Este 0 -- -- 53
2020-09-03 10:00:00 18.8 7 Sudeste 13 Este 0 -- -- 59
2020-09-03 09:00:00 14.8 2 Sudoeste 8 Norte 0 -- -- 74
2020-09-03 08:00:00 11.3 7 Norte 11 Norte 0 -- -- 86
2020-09-03 07:00:00 11.4 8 Norte 12 Norte 0 -- -- 84
2020-09-03 06:00:00 11.3 9 Norte 12 Norte 0 -- -- 83
2020-09-03 05:00:00 11.4 6 Norte 8 Norte 0 -- -- 84
2020-09-03 04:00:00 12 0 Calma 7 Norte 0 -- -- 81
2020-09-03 03:00:00 12.7 3 Nordeste 6 Este 0 -- -- 79
2020-09-03 02:00:00 13.3 5 Nordeste 9 Este 0 -- -- 77
2020-09-03 01:00:00 13.3 5 Nordeste 8 Nordeste 0 -- -- 72
2020-09-03 00:00:00 13.9 4 Norte 13 Norte 0 -- -- 69
2020-09-02 23:00:00 14.4 9 Norte 12 Norte 0 -- -- 68
2020-09-02 22:00:00 15.7 8 Norte 10 Norte 0 -- -- 64
2020-09-02 21:00:00 20.5 4 Sudoeste 10 Sudoeste 0 -- -- 50
2020-09-02 20:00:00 22.7 7 Sudoeste 18 Sudoeste 0 -- -- 44
2020-09-02 19:00:00 23.5 10 Sudoeste 21 Sudoeste 0 -- -- 41
2020-09-02 18:00:00 24.4 9 Sudoeste 22 Oeste 0 -- -- 40
2020-09-02 17:00:00 24.1 12 Sudoeste 24 Sur 0 -- -- 41
2020-09-02 16:00:00 24.1 9 Sudoeste 28 Sur 0 -- -- 43
2020-09-02 15:00:00 23.2 9 Sur 29 Sudeste 0 -- -- 46
2020-09-02 14:00:00 22.7 10 Sur 22 Sur 0 -- -- 47
2020-09-02 13:00:00 21.6 7 Sudoeste 21 Sudeste 0 -- -- 47
2020-09-02 12:00:00 20.4 10 Sur 25 Sudeste 0 -- -- 56
2020-09-02 11:00:00 18 13 Sudeste 22 Sur 0 -- -- 67
2020-09-02 10:00:00 17.1 6 Sur 12 Este 0 -- -- 70
2020-09-02 09:00:00 15.4 8 Este 12 Este 0 -- -- 65
2020-09-02 08:00:00 12 5 Este 13 Nordeste 0 -- -- 72
2020-09-02 07:00:00 11.2 8 Este 13 Este 0 -- -- 71
2020-09-02 06:00:00 11.1 6 Este 16 Nordeste 0 -- -- 72
2020-09-02 05:00:00 10.6 6 Norte 9 Norte 0 -- -- 73
2020-09-02 04:00:00 10.9 4 Norte 8 Norte 0 -- -- 69
2020-09-02 03:00:00 11.2 4 Nordeste 8 Este 0 -- -- 65
2020-09-02 02:00:00 12.1 4 Norte 11 Norte 0 -- -- 61
2020-09-02 01:00:00 13 4 Norte 10 Norte 0 -- -- 59
2020-09-02 00:00:00 13.3 6 Norte 11 Norte 0 -- -- 57
2020-09-01 23:00:00 13.9 8 Norte 10 Norte 0 -- -- 56
2020-09-01 22:00:00 15.1 8 Norte 10 Norte 0 -- -- 53
2020-09-01 21:00:00 19 2 Noroeste 8 Sudoeste 0 -- -- 45
2020-09-01 20:00:00 22.7 2 Oeste 13 Sudoeste 0 -- -- 35
2020-09-01 19:00:00 21.9 9 Sudoeste 20 Sudoeste 0 -- -- 37
2020-09-01 18:00:00 22.8 5 Oeste 18 Sudoeste 0 -- -- 32
2020-09-01 17:00:00 21.5 13 Oeste 19 Sudoeste 0 -- -- 34
2020-09-01 16:00:00 21.2 10 Sudoeste 21 Oeste 0 -- -- 38
2020-09-01 15:00:00 21.5 13 Oeste 21 Oeste 0 -- -- 40
2020-09-01 14:00:00 21.6 9 Oeste 17 Oeste 0 -- -- 39
2020-09-01 13:00:00 21.4 4 Noroeste 12 Este 0 -- -- 37
2020-09-01 12:00:00 21.8 7 Este 15 Este 0 -- -- 40
2020-09-01 11:00:00 18.4 6 Sur 12 Sudeste 0 -- -- 45
2020-09-01 10:00:00 16.7 5 Este 10 Sudeste 0 -- -- 53
2020-09-01 09:00:00 11.9 3 Norte 7 Norte 0 -- -- 64
2020-09-01 08:00:00 10.7 3 Norte 10 Norte 0 -- -- 66
2020-09-01 07:00:00 10.9 7 Norte 10 Norte 0 -- -- 65
2020-09-01 06:00:00 11.2 5 Norte 8 Norte 0 -- -- 65
2020-09-01 05:00:00 11.6 6 Norte 9 Norte 0 -- -- 64
2020-09-01 04:00:00 12 3 Norte 10 Norte 0 -- -- 61
2020-09-01 03:00:00 12 8 Norte 10 Noroeste 0 -- -- 58
2020-09-01 02:00:00 12 5 Nordeste 10 Este 0 -- -- 54
2020-09-01 01:00:00 12.2 5 Norte 9 Norte 0 -- -- 51
2020-09-01 00:00:00 12.5 8 Norte 12 Norte 0 -- -- 51
2020-08-31 23:00:00 12.5 8 Norte 12 Norte 0 -- -- 51
2020-08-31 22:00:00 13.4 8 Norte 11 Norte 0 -- -- 49
2020-08-31 21:00:00 17 5 Noroeste 17 Oeste 0 -- -- 40
2020-08-31 20:00:00 20.7 12 Oeste 23 Oeste 0 -- -- 31
2020-08-31 19:00:00 22.1 13 Oeste 23 Oeste 0 -- -- 31
2020-08-31 18:00:00 22.5 12 Sudoeste 20 Oeste 0 -- -- 30
2020-08-31 17:00:00 22.1 10 Noroeste 24 Oeste 0 -- -- 33
2020-08-31 16:00:00 21.6 8 Noroeste 30 Oeste 0 -- -- 35
2020-08-31 15:00:00 20.7 14 Oeste 24 Sudoeste 0 -- -- 39
2020-08-31 14:00:00 20.2 13 Sudoeste 28 Sudoeste 0 -- -- 42
2020-08-31 13:00:00 19.6 12 Sudoeste 23 Oeste 0 -- -- 46
2020-08-31 12:00:00 19.1 6 Oeste 21 Oeste 0 -- -- 47
2020-08-31 11:00:00 16.6 12 Noroeste 18 Noroeste 0 -- -- 52
2020-08-31 10:00:00 14.5 8 Oeste 14 Oeste 0 -- -- 60
2020-08-31 09:00:00 11.9 5 Noroeste 11 Norte 0 -- -- 76
2020-08-31 08:00:00 8.1 7 Norte 12 Norte 0 -- -- 80
2020-08-31 07:00:00 8.1 9 Norte 15 Norte 0 -- -- 79
2020-08-31 06:00:00 9.1 8 Norte 12 Norte 0 -- -- 77
2020-08-31 05:00:00 9.4 6 Noroeste 15 Norte 0 -- -- 75
2020-08-31 04:00:00 9.5 12 Norte 17 Nordeste 0 -- -- 74
2020-08-31 03:00:00 11.6 10 Nordeste 15 Nordeste 0 -- -- 66
2020-08-31 02:00:00 13.2 3 Nordeste 12 Sur 0 -- -- 62
2020-08-31 01:00:00 13.5 3 Sur 9 Sudeste 0 -- -- 61
2020-08-31 00:00:00 13 4 Norte 9 Sudeste 0 -- -- 64
2020-08-30 23:00:00 14.1 4 Nordeste 22 Nordeste 0 -- -- 58
2020-08-30 22:00:00 14.8 6 Este 20 Nordeste 0 -- -- 58
2020-08-30 21:00:00 15.5 8 Norte 20 Este 0 -- -- 57
2020-08-30 20:00:00 17.1 8 Norte 31 Nordeste 0 -- -- 50
2020-08-30 19:00:00 20.3 12 Sudoeste 29 Sudoeste 0 -- -- 43
2020-08-30 18:00:00 20.8 16 Sudoeste 30 Sudoeste 0 -- -- 41
2020-08-30 17:00:00 20.9 10 Sudoeste 24 Sudoeste 0 -- -- 39
2020-08-30 16:00:00 19.9 6 Noroeste 20 Sudoeste 0 -- -- 42
2020-08-30 15:00:00 19.6 9 Sudoeste 23 Sudoeste 0 -- -- 45
2020-08-30 14:00:00 19.1 8 Sudoeste 21 Sur 0 -- -- 46
2020-08-30 13:00:00 19.3 10 Sur 23 Sudeste 0 -- -- 46
2020-08-30 12:00:00 17.4 11 Sur 24 Sudeste 0 -- -- 53
2020-08-30 11:00:00 15.7 11 Sur 20 Este 0 -- -- 62
2020-08-30 10:00:00 15 12 Este 20 Sudeste 0 -- -- 63
2020-08-30 09:00:00 12.3 5 Oeste 10 Oeste 0 -- -- 72
2020-08-30 08:00:00 8.6 10 Norte 15 Norte 0 -- -- 84
2020-08-30 07:00:00 7.9 9 Norte 14 Norte 0 -- -- 85
2020-08-30 06:00:00 8.1 8 Norte 12 Norte 0 -- -- 83
2020-08-30 05:00:00 8.6 8 Norte 12 Norte 0 -- -- 81
2020-08-30 04:00:00 9.2 10 Norte 14 Norte 0 -- -- 83
2020-08-30 03:00:00 9.9 7 Norte 12 Norte 0 -- -- 78
2020-08-30 02:00:00 11.2 8 Noroeste 13 Norte 0 -- -- 74
2020-08-30 01:00:00 11.6 6 Noroeste 11 Norte 0 -- -- 73
2020-08-30 00:00:00 11.3 9 Norte 12 Este 0 -- -- 70
2020-08-29 23:00:00 13.3 8 Norte 9 Nordeste 0 -- -- 63
2020-08-29 22:00:00 14.4 9 Norte 17 Norte 0 -- -- 61
2020-08-29 21:00:00 15.4 11 Norte 24 Norte 0 -- -- 57
2020-08-29 20:00:00 16.9 4 Norte 35 Norte 0 -- -- 56
2020-08-29 19:00:00 17.9 21 Norte 53 Norte 0 -- -- 50
2020-08-29 18:00:00 21.4 13 Sur 31 Sudoeste 0 -- -- 39
2020-08-29 17:00:00 22.7 15 Oeste 29 Oeste 0 -- -- 35
2020-08-29 16:00:00 22.5 12 Sudoeste 24 Oeste 0 -- -- 32
2020-08-29 15:00:00 20.7 10 Oeste 26 Sur 0 -- -- 40
2020-08-29 14:00:00 20 12 Sur 30 Sudeste 0 -- -- 45
2020-08-29 13:00:00 18.9 15 Sur 23 Sur 0 -- -- 60
2020-08-29 12:00:00 17.8 8 Sudeste 16 Este 0 -- -- 68
2020-08-29 11:00:00 16.1 6 Este 11 Este 0 -- -- 78
2020-08-29 10:00:00 14.3 3 Sudeste 10 Sudeste 0 -- -- 85
2020-08-29 09:00:00 13.4 5 Este 8 Este 0 -- -- 89
2020-08-29 08:00:00 12.8 3 Este 8 Este 0 -- -- 90
2020-08-29 07:00:00 12.8 6 Este 12 Sudeste 0 -- -- 91
2020-08-29 06:00:00 13.5 6 Sudeste 16 Sudeste 0 -- -- 90
2020-08-29 05:00:00 14.6 8 Sudeste 14 Sudeste 0.6 -- -- 87
2020-08-29 04:00:00 15.9 8 Sudeste 13 Sudeste 0 -- -- 86
2020-08-29 03:00:00 16.9 4 Este 15 Sudeste 0 -- -- 88
2020-08-29 02:00:00 17.3 9 Sudeste 16 Sudeste 0 -- -- 90
2020-08-29 01:00:00 17.7 3 Nordeste 6 Nordeste 0 -- -- 90
2020-08-29 00:00:00 18.2 5 Norte 13 Oeste 0.6 -- -- 86
2020-08-28 23:00:00 19.3 8 Nordeste 13 Sudeste 0 -- -- 78
2020-08-28 22:00:00 20.4 5 Noroeste 20 Este 0 -- -- 74
2020-08-28 21:00:00 23.2 18 Oeste 31 Oeste 0 -- -- 62
2020-08-28 20:00:00 24.3 16 Sudoeste 28 Sudoeste 0 -- -- 66
2020-08-28 19:00:00 25.1 11 Sudoeste 25 Sudoeste 0 -- -- 63
2020-08-28 18:00:00 24.7 10 Sur 18 Sur 0 -- -- 67
2020-08-28 17:00:00 24.9 10 Sudoeste 21 Sudoeste 0 -- -- 66
2020-08-28 16:00:00 23.9 10 Sudoeste 27 Sudoeste 0 -- -- 70
2020-08-28 15:00:00 24.2 14 Sudoeste 23 Sudoeste 0 -- -- 68
2020-08-28 14:00:00 22.2 9 Sudeste 18 Sudeste 0 -- -- 81
2020-08-28 13:00:00 21.1 10 Sur 19 Sudeste 0.2 -- -- 88
2020-08-28 12:00:00 22.1 9 Sur 19 Sudeste 0 -- -- 78
2020-08-28 11:00:00 22.2 10 Sudeste 26 Este 0 -- -- 76
2020-08-28 10:00:00 21.6 9 Sudeste 22 Sudeste 0 -- -- 85
2020-08-28 09:00:00 20.9 12 Este 17 Este 0 -- -- 88
2020-08-28 08:00:00 18.9 6 Este 10 Este 0 -- -- 92
2020-08-28 07:00:00 19.8 2 Sudeste 7 Sudeste 0 -- -- 87
2020-08-28 06:00:00 20.9 5 Sudeste 19 Nordeste 0 -- -- 82
2020-08-28 05:00:00 21.5 15 Nordeste 19 Nordeste 0 -- -- 81
2020-08-28 04:00:00 22.1 12 Nordeste 17 Nordeste 0 -- -- 77
2020-08-28 03:00:00 21.7 6 Este 20 Este 0 -- -- 77
2020-08-28 02:00:00 21.7 10 Este 15 Nordeste 0 -- -- 83
2020-08-28 01:00:00 22.4 7 Este 12 Este 0 -- -- 82
2020-08-28 00:00:00 22.7 8 Este 13 Sur 0 -- -- 77
2020-08-27 23:00:00 22.3 3 Este 9 Norte 0 -- -- 66
2020-08-27 22:00:00 24.4 5 Este 12 Sudeste 0 -- -- 57
2020-08-27 21:00:00 27.4 7 Sudeste 13 Sur 0 -- -- 47
2020-08-27 20:00:00 30.1 7 Sudoeste 22 Sudoeste 0 -- -- 38
2020-08-27 19:00:00 31 12 Sudoeste 30 Sudoeste 0 -- -- 39
2020-08-27 18:00:00 31.3 14 Sudoeste 30 Sudoeste 0 -- -- 43
2020-08-27 17:00:00 31.7 14 Sudoeste 30 Sudoeste 0 -- -- 42
2020-08-27 16:00:00 31.8 12 Sudoeste 28 Sur 0 -- -- 43
2020-08-27 15:00:00 31.2 12 Sudoeste 28 Sudoeste 0 -- -- 49
2020-08-27 14:00:00 30.7 10 Sudoeste 19 Oeste 0 -- -- 44
2020-08-27 13:00:00 30.1 7 Sur 16 Sudeste 0 -- -- 53
2020-08-27 12:00:00 27.7 5 Sudeste -- -- -- -- -- 61
2020-08-27 11:00:00 26.4 4 Sudeste 11 Este 0 -- -- 63
2020-08-27 10:00:00 24.2 5 Sur 8 Sur 0 -- -- 69
2020-08-27 09:00:00 21.5 4 Oeste 5 Oeste 0 -- -- 78
2020-08-27 08:00:00 18.5 4 Norte 8 Norte 0 -- -- 89
2020-08-27 07:00:00 18.3 5 Norte 10 Norte 0 -- -- 88
2020-08-27 06:00:00 18.3 5 Norte 9 Norte 0 -- -- 89
2020-08-27 05:00:00 19 4 Norte 9 Norte 0 -- -- 88
2020-08-27 04:00:00 19.6 5 Norte 8 Norte 0 -- -- 86
2020-08-27 03:00:00 20 5 Norte 12 Norte 0 -- -- 85
2020-08-27 02:00:00 20.3 6 Norte 11 Norte 0 -- -- 82
2020-08-27 01:00:00 20.5 6 Norte 12 Norte 0 -- -- 77
2020-08-27 00:00:00 20.5 6 Norte 10 Norte 0 -- -- 68
2020-08-26 23:00:00 21.4 4 Norte 12 Norte 0 -- -- 64
2020-08-26 22:00:00 22.4 9 Norte 12 Norte 0 -- -- 62
2020-08-26 21:00:00 27.1 5 Sur 15 Sur 0 -- -- 48
2020-08-26 20:00:00 29.3 9 Sur 22 Sudoeste 0 -- -- 45
2020-08-26 19:00:00 30.6 12 Sur 23 Sur 0 -- -- 43
2020-08-26 18:00:00 31.9 6 Sur 20 Sur 0 -- -- 39
2020-08-26 17:00:00 31.7 9 Sur 23 Sudoeste 0 -- -- 41
2020-08-26 16:00:00 31.2 9 Sur 23 Sudeste 0 -- -- 46
2020-08-26 15:00:00 30.6 12 Sudeste 24 Sudeste 0 -- -- 47
2020-08-26 14:00:00 29.9 10 Sudeste 22 Sudeste 0 -- -- 48
2020-08-26 13:00:00 28.6 6 Sudeste 20 Sudeste 0 -- -- 51
2020-08-26 12:00:00 27.5 11 Sudeste 22 Sudeste 0 -- -- 52
2020-08-26 11:00:00 25.1 12 Sudeste 21 Sur 0 -- -- 59
2020-08-26 10:00:00 23.8 10 Sudeste 15 Sudeste 0 -- -- 61
2020-08-26 09:00:00 22.1 5 Este 10 Norte 0 -- -- 55
2020-08-26 08:00:00 18.1 4 Norte 8 Norte 0 -- -- 65
2020-08-26 07:00:00 17.9 3 Sudeste 6 Este 0 -- -- 66
2020-08-26 06:00:00 19.2 4 Sudeste 11 Norte 0 -- -- 61
2020-08-26 05:00:00 18.8 8 Nordeste 13 Nordeste 0 -- -- 62
2020-08-26 04:00:00 18.6 7 Nordeste 11 Nordeste 0 -- -- 68
2020-08-26 03:00:00 19.3 8 Norte 11 Norte 0 -- -- 69
2020-08-26 02:00:00 19.4 3 Norte 13 Norte 0 -- -- 65
2020-08-26 01:00:00 19.7 7 Norte 10 Norte 0 -- -- 59
2020-08-26 00:00:00 20.1 4 Norte 10 Norte 0 -- -- 57
2020-08-25 23:00:00 20.7 3 Nordeste 9 Norte 0 -- -- 51
2020-08-25 22:00:00 22.4 5 Noroeste 12 Norte 0 -- -- 47
2020-08-25 21:00:00 25 7 Noroeste 11 Oeste 0 -- -- 45
2020-08-25 20:00:00 30.3 10 Oeste 19 Oeste 0 -- -- 34
2020-08-25 19:00:00 31 12 Oeste 22 Oeste 0 -- -- 31
2020-08-25 18:00:00 31.5 13 Oeste 25 Sudoeste 0 -- -- 30
2020-08-25 17:00:00 31.5 10 Sudoeste 35 Sudoeste 0 -- -- 33
2020-08-25 16:00:00 31.3 10 Sudoeste 24 Sudoeste 0 -- -- 36
2020-08-25 15:00:00 30.7 10 Noroeste 22 Oeste 0 -- -- 30
2020-08-25 14:00:00 30.1 6 Sudoeste 21 Oeste 0 -- -- 31
2020-08-25 13:00:00 28 12 Noroeste 22 Oeste 0 -- -- 40
2020-08-25 12:00:00 27.1 10 Oeste 17 Oeste 0 -- -- 39
2020-08-25 11:00:00 24.6 4 Sudoeste 8 Sur 0 -- -- 46
2020-08-25 10:00:00 22.2 5 Sur 10 Sudeste 0 -- -- 50
2020-08-25 09:00:00 19.1 4 Nordeste 9 Norte 0 -- -- 60
2020-08-25 08:00:00 14.6 6 Norte 9 Norte 0 -- -- 76
2020-08-25 07:00:00 14.1 4 Norte 11 Norte 0 -- -- 78
2020-08-25 06:00:00 15.1 0 Calma 11 Norte 0 -- -- 74
2020-08-25 05:00:00 14.9 5 Norte 10 Norte 0 -- -- 75
2020-08-25 04:00:00 15.3 2 Sudeste 10 Norte 0 -- -- 72
2020-08-25 03:00:00 15.3 9 Norte 12 Norte 0 -- -- 72
2020-08-25 02:00:00 15.5 9 Norte 12 Norte 0 -- -- 69
2020-08-25 01:00:00 15.9 7 Norte 12 Norte 0 -- -- 67
2020-08-25 00:00:00 16.6 4 Norte 12 Norte 0 -- -- 64
2020-08-24 23:00:00 16.8 8 Norte 12 Norte 0 -- -- 60
2020-08-24 22:00:00 18 8 Norte 12 Norte 0 -- -- 53
2020-08-24 21:00:00 22.6 3 Noroeste 15 Sudoeste 0 -- -- 40
2020-08-24 20:00:00 26.1 10 Sudoeste 20 Oeste 0 -- -- 32
2020-08-24 19:00:00 27.2 9 Sudoeste 24 Sudoeste 0 -- -- 31
2020-08-24 18:00:00 26.9 16 Oeste 29 Sudoeste 0 -- -- 33
2020-08-24 17:00:00 27.1 15 Sudoeste 30 Sudoeste 0 -- -- 35
2020-08-24 16:00:00 26.9 14 Sudoeste 31 Oeste 0 -- -- 36
2020-08-24 15:00:00 26.1 14 Oeste 26 Oeste 0 -- -- 37
2020-08-24 14:00:00 25.6 12 Sudoeste 22 Sudoeste 0 -- -- 45
2020-08-24 13:00:00 24.9 9 Sudoeste 18 Sudoeste 0 -- -- 46
2020-08-24 12:00:00 23.7 8 Sudeste 18 Sur 0 -- -- 49
2020-08-24 11:00:00 20.4 9 Sur 18 Sudeste 0 -- -- 63
2020-08-24 10:00:00 19 8 Sudeste 13 Sudeste 0 -- -- 72
2020-08-24 09:00:00 18.2 6 Este 9 Este 0 -- -- 71
2020-08-24 08:00:00 13.3 5 Norte 9 Norte 0 -- -- 89
2020-08-24 07:00:00 12.8 3 Norte 9 Norte 0 -- -- 87
2020-08-24 06:00:00 13.1 5 Norte 9 Norte 0 -- -- 79
2020-08-24 05:00:00 14 4 Este 8 Norte 0 -- -- 80
2020-08-24 04:00:00 15.1 3 Norte 11 Este 0 -- -- 77
2020-08-24 03:00:00 16.9 10 Este 13 Este 0 -- -- 68
2020-08-24 02:00:00 17.2 5 Este 14 Sudeste 0 -- -- 53
2020-08-24 01:00:00 16.6 2 Este 9 Norte 0 -- -- 51
2020-08-24 00:00:00 16.8 5 Norte 11 Norte 0 -- -- 51
2020-08-23 23:00:00 17.5 7 Norte 11 Norte 0 -- -- 49
2020-08-23 22:00:00 19 6 Norte 10 Norte 0 -- -- 47
2020-08-23 21:00:00 23 4 Norte 12 Sudoeste 0 -- -- 38
2020-08-23 20:00:00 25.8 9 Sudoeste 21 Sudoeste 0 -- -- 32
2020-08-23 19:00:00 27.4 10 Oeste 24 Oeste 0 -- -- 30
2020-08-23 18:00:00 27.7 13 Sudoeste 23 Oeste 0 -- -- 30
2020-08-23 17:00:00 27.6 13 Sudoeste 27 Oeste 0 -- -- 29
2020-08-23 16:00:00 26.8 14 Oeste 30 Oeste 0 -- -- 32
2020-08-23 15:00:00 26.5 17 Sudoeste 27 Sudoeste 0 -- -- 31
2020-08-23 14:00:00 26 13 Oeste 24 Oeste 0 -- -- 32
2020-08-23 13:00:00 25.2 10 Oeste 19 Sudeste 0 -- -- 35
2020-08-23 12:00:00 23.7 9 Sur 21 Este 0 -- -- 39
2020-08-23 11:00:00 21.2 10 Sudeste 18 Sudeste 0 -- -- 55
2020-08-23 10:00:00 20.4 9 Sudeste 15 Este 0 -- -- 62
2020-08-23 09:00:00 18.4 6 Este 9 Norte 0 -- -- 51
2020-08-23 08:00:00 14.1 3 Nordeste 11 Norte 0 -- -- 55
2020-08-23 07:00:00 13.1 4 Norte 11 Norte 0 -- -- 54
2020-08-23 06:00:00 14.1 8 Norte 12 Norte 0 -- -- 53
2020-08-23 05:00:00 15.1 4 Norte 10 Norte 0 -- -- 47
2020-08-23 04:00:00 15.8 4 Este 13 Norte 0 -- -- 49
2020-08-23 03:00:00 16.6 7 Norte 13 Noroeste 0 -- -- 48
2020-08-23 02:00:00 19.2 12 Noroeste 15 Noroeste 0 -- -- 43
2020-08-23 01:00:00 20.4 9 Oeste 13 Oeste 0 -- -- 40
2020-08-23 00:00:00 18.2 8 Noroeste 11 Norte 0 -- -- 42
2020-08-22 23:00:00 17.4 9 Norte 13 Noroeste 0 -- -- 43
2020-08-22 22:00:00 19.3 10 Noroeste 12 Norte 0 -- -- 40
2020-08-22 21:00:00 23.5 5 Norte 14 Sudoeste 0 -- -- 32
2020-08-22 20:00:00 28.5 8 Sudoeste 22 Oeste 0 -- -- 24
2020-08-22 19:00:00 29.3 13 Oeste 29 Oeste 0 -- -- 28
2020-08-22 18:00:00 29.4 15 Oeste 31 Oeste 0 -- -- 31
2020-08-22 17:00:00 29.6 17 Oeste 33 Sudoeste 0 -- -- 35
2020-08-22 16:00:00 29.7 13 Sudoeste 32 Oeste 0 -- -- 33
2020-08-22 15:00:00 28.9 18 Sudoeste 36 Sudoeste 0 -- -- 38
2020-08-22 14:00:00 28.4 17 Sudoeste 28 Oeste 0 -- -- 43
2020-08-22 13:00:00 27.6 15 Sudoeste 32 Sur 0 -- -- 50
2020-08-22 12:00:00 27 6 Sudoeste 21 Sudeste 0 -- -- 55
2020-08-22 11:00:00 25.6 7 Sudeste 18 Este 0 -- -- 69
2020-08-22 10:00:00 23.6 6 Sudeste 10 Sudeste 0 -- -- 74
2020-08-22 09:00:00 21.9 4 Este 8 Este 0 -- -- 80
2020-08-22 08:00:00 19.1 3 Este 8 Norte 0 -- -- 91
2020-08-22 07:00:00 18.3 6 Norte 8 Norte 0 -- -- 90
2020-08-22 06:00:00 18.7 3 Norte 9 Norte 0 -- -- 87
2020-08-22 05:00:00 19.4 3 Este 7 Norte 0 -- -- 82
2020-08-22 04:00:00 20.5 3 Este 9 Este 0 -- -- 65
2020-08-22 03:00:00 20.4 4 Este 9 Norte 0 -- -- 64
2020-08-22 02:00:00 20.5 3 Norte 14 Noroeste 0 -- -- 65
2020-08-22 01:00:00 20.7 8 Norte 12 Noroeste 0 -- -- 49
2020-08-22 00:00:00 21.4 6 Norte 12 Nordeste 0 -- -- 42
2020-08-21 23:00:00 21.7 6 Norte 13 Norte 0 -- -- 45
2020-08-21 22:00:00 23.4 5 Norte 12 Norte 0 -- -- 43
2020-08-21 21:00:00 27.4 5 Noroeste 13 Sudoeste 0 -- -- 37
2020-08-21 20:00:00 31.4 6 Oeste 17 Oeste 0 -- -- 28
2020-08-21 19:00:00 32.7 12 Sudoeste 26 Oeste 0 -- -- 22
2020-08-21 18:00:00 32.8 11 Sur 27 Oeste 0 -- -- 22
2020-08-21 17:00:00 33.3 9 Sudoeste 28 Oeste 0 -- -- 26
2020-08-21 16:00:00 32.4 13 Oeste 24 Oeste 0 -- -- 27
2020-08-21 15:00:00 32.4 8 Sur 20 Sudoeste 0 -- -- 29
2020-08-21 14:00:00 32.1 7 Nordeste 17 Sudeste 0 -- -- 35
2020-08-21 13:00:00 30.5 5 Nordeste 19 Sudeste 0 -- -- 36
2020-08-21 12:00:00 28.7 8 Sudeste 20 Sudeste 0 -- -- 39
2020-08-21 11:00:00 27 9 Sudeste 16 Sudeste 0 -- -- 43
2020-08-21 10:00:00 25.1 5 Sur 8 Sur 0 -- -- 45
2020-08-21 09:00:00 23.5 3 Sur 12 Este 0 -- -- 49
2020-08-21 08:00:00 20.8 8 Nordeste 17 Este 0 -- -- 53
2020-08-21 07:00:00 20.6 10 Este 21 Nordeste 0 -- -- 52
2020-08-21 06:00:00 21 17 Nordeste 21 Nordeste 0 -- -- 52
2020-08-21 05:00:00 21.2 14 Este 18 Este 0 -- -- 52
2020-08-21 04:00:00 20.1 6 Este 12 Este 0 -- -- 51
2020-08-21 03:00:00 20.7 8 Este 21 Nordeste 0 -- -- 49
2020-08-21 02:00:00 20.8 12 Este 22 Nordeste 0 -- -- 48
2020-08-21 01:00:00 21.6 8 Sudeste 23 Este 0 -- -- 48
2020-08-21 00:00:00 22.4 15 Este 24 Sudeste 0 -- -- 44
2020-08-20 23:00:00 23.7 21 Este 31 Este 0 -- -- 42
2020-08-20 22:00:00 24.2 16 Este 31 Sudeste 0 -- -- 42
2020-08-20 21:00:00 25.8 18 Sudeste 33 Sudeste 0 -- -- 40
2020-08-20 20:00:00 27.4 22 Sudeste 38 Sudeste 0 -- -- 37
2020-08-20 19:00:00 28.4 19 Sudeste 39 Sudeste 0 -- -- 37
2020-08-20 18:00:00 30.7 23 Sudeste 41 Sudeste 0 -- -- 36
2020-08-20 17:00:00 31.5 18 Sur 32 Sur 0 -- -- 34
2020-08-20 16:00:00 31.9 18 Sudeste 34 Sudeste 0 -- -- 33
2020-08-20 15:00:00 31.9 17 Sudeste 33 Sudeste 0 -- -- 28
2020-08-20 14:00:00 31.7 16 Sudeste 34 Sudeste 0 -- -- 28
2020-08-20 13:00:00 29.8 17 Sur 29 Sudeste 0 -- -- 33
2020-08-20 12:00:00 29.2 12 Sudeste 27 Sudeste 0 -- -- 36
2020-08-20 11:00:00 27.4 11 Sudeste 20 Sur 0 -- -- 39
2020-08-20 10:00:00 25.9 13 Este 28 Este 0 -- -- 45
2020-08-20 09:00:00 23.6 15 Este 23 Este 0 -- -- 53
2020-08-20 08:00:00 20 6 Este 15 Este 0 -- -- 64
2020-08-20 07:00:00 18.1 4 Este 7 Este 0 -- -- 69
2020-08-20 06:00:00 18.4 5 Este 12 Nordeste 0 -- -- 68
2020-08-20 05:00:00 19.7 7 Nordeste 15 Nordeste 0 -- -- 63
2020-08-20 04:00:00 20.2 8 Este 17 Este 0 -- -- 63
2020-08-20 03:00:00 20.9 9 Este 17 Este 0 -- -- 61
2020-08-20 02:00:00 20.6 6 Nordeste 14 Nordeste 0 -- -- 59
2020-08-20 01:00:00 21.8 5 Este 18 Este 0 -- -- 60
2020-08-20 00:00:00 22.5 14 Este 20 Este 0 -- -- 61